TAFOR
Diposting tanggal: 10 Juni 2019

Pukul :

Isi :
TAF WAGI 180500Z 1806/1818 00000KT 8000 BKN012 TEMPO 1806/1810 14005KT 3000 RA BKN010=